0PA1 weather

Public forecast

Using degrees Fahrenheit for public forecast. Weather courtesy of forecast.io.

Closest aviation weather report (METAR) to Phoenix Technologies Heliport

Closest report is Wings Field, 6.4 nm (11.8 km) E. Retrieved 2020/08/09 08:55 UTC (12 minutes ago):

KLOM 090855Z AUTO 21003KT 7SM BR OVC006 22/21 A3015 RMK AO2 T02190214 60001

Closest aviation forecast (TAF) to Phoenix Technologies Heliport

Closest forecast is Philadelphia International Airport, 16.5 nm (30.6 km) SSE. Retrieved 2020/08/09 06:40 UTC (2 hours ago):

TAF KPHL 090532Z 0906/1012 VRB03KT P6SM SCT015 TEMPO 0906/0908 BKN015 FM090800 VRB03KT 5SM BR OVC015 TEMPO 0908/0912 2SM BR BKN007 FM091300 22004KT P6SM SCT035 FM091700 23007KT P6SM BKN050 FM100600 VRB04KT 4SM BR SCT110